Parma, Ohio
Current Conditions -  °F | °C
As of 10:51 PM on Saturday 25 Oct 2014 (Local Time) from KCLE Reporting Station
Clear Clear  
Wind Chill: 58°   Ceiling: Unl
Heat Index: 58°   Visibility: 10mi
Dew Point: 35°   Wind: 15mph
Humidity: 42%   Direction: 290°WNW
Pressure: 29.83"   Gusts: 23mph
Location:  41.38°N, 81.73°W
Report Text: KCLE 260251Z 29013G20KT 10SM CLR 14/02 A2983 RMK AO2 SLP100 T01440017 53015
Loading
Personal Weather Stations






























Interactive Weather Map
Tropical Storm Tracking
New forecast layout! Learn more

10-Day Weather Forecast

Advertisements
Track Severe Weather on mobile